Jamestown, Idaho
Current Conditions -  °F | °C
As of 9:53 AM on Friday 24 Oct 2014 (Local Time) from KIDA Reporting Station
Broken Clouds Broken Clouds  
Wind Chill: 53°   Ceiling: 9500
Heat Index: 53°   Visibility: 10mi
Dew Point: 40°   Wind: 10mph
Humidity: 61%   Direction: 230°SW
Pressure: 30.17"   Gusts: NA
Location:  43.2015°N, 111.522°W
Report Text: KIDA 241553Z 23009KT 10SM BKN095 12/04 A3017 RMK AO2 SLP200 T01170044
Loading
Personal Weather Stations






























Interactive Weather Map
Tropical Storm Tracking
New forecast layout! Learn more

10-Day Weather Forecast

Advertisements
Track Severe Weather on mobile